Time;durP1;ratioP1;P1;durP2;ratioP2;P2;SDS_P1;SDS_P2;PMS_P1;PMS_P2;Temp;Humidity;BMP_temperature;BMP_pressure;BME280_temperature;BME280_humidity;BME280_pressure;Samples;Min_cycle;Max_cycle;Signal;HPM_P1;HPM_P2
2023/10/29 00:00:33;;;;;;;3.20;2.40;;;11.80;99.90;;;;;;5067481;28;20040;-62
2023/10/29 00:02:59;;;;;;;3.97;2.58;;;11.80;99.90;;;;;;5002660;28;20397;-63
2023/10/29 00:05:25;;;;;;;3.97;2.28;;;11.80;99.90;;;;;;5071835;28;20028;-64
2023/10/29 00:07:50;;;;;;;4.28;2.20;;;11.90;99.90;;;;;;5001304;28;20102;-63
2023/10/29 00:10:16;;;;;;;5.90;2.58;;;11.80;99.90;;;;;;5069611;28;20053;-64
2023/10/29 00:12:43;;;;;;;4.35;2.63;;;11.90;99.90;;;;;;5052760;28;20115;-63
2023/10/29 00:15:09;;;;;;;3.78;2.63;;;11.80;99.90;;;;;;5049056;28;20275;-63
2023/10/29 00:17:35;;;;;;;2.92;2.30;;;11.80;99.90;;;;;;5066628;28;20064;-63
2023/10/29 00:20:01;;;;;;;3.45;2.03;;;11.90;99.90;;;;;;5068475;28;20482;-61
2023/10/29 00:22:27;;;;;;;3.60;2.78;;;11.80;99.90;;;;;;5068287;28;20474;-62
2023/10/29 00:24:53;;;;;;;3.83;2.55;;;11.80;99.90;;;;;;5055098;28;20098;-62
2023/10/29 00:27:19;;;;;;;4.95;2.25;;;11.90;99.90;;;;;;5067794;28;20040;-62
2023/10/29 00:29:46;;;;;;;3.33;2.38;;;11.90;99.90;;;;;;5067298;28;20082;-62
2023/10/29 00:32:13;;;;;;;4.00;2.67;;;11.80;99.90;;;;;;5068027;28;20036;-62
2023/10/29 00:34:38;;;;;;;4.30;2.53;;;11.90;99.90;;;;;;5066883;28;20040;-63
2023/10/29 00:37:04;;;;;;;3.65;2.13;;;11.90;99.90;;;;;;5068468;28;20066;-62
2023/10/29 00:39:30;;;;;;;3.80;2.70;;;11.90;99.90;;;;;;5065898;28;20033;-63
2023/10/29 00:41:56;;;;;;;3.30;1.90;;;11.80;99.90;;;;;;5069207;28;20033;-63
2023/10/29 00:44:22;;;;;;;3.78;1.75;;;11.90;99.90;;;;;;5067023;28;20455;-63
2023/10/29 00:46:49;;;;;;;5.75;2.28;;;11.90;99.90;;;;;;5068800;28;20113;-63
2023/10/29 00:49:14;;;;;;;3.75;1.85;;;11.90;99.90;;;;;;5045120;28;20042;-64
2023/10/29 00:51:40;;;;;;;3.75;1.77;;;11.90;99.90;;;;;;5068405;28;20119;-63
2023/10/29 00:54:07;;;;;;;3.20;1.85;;;11.90;99.90;;;;;;5067424;28;20102;-63
2023/10/29 00:56:34;;;;;;;4.00;1.90;;;11.90;99.90;;;;;;5068917;28;20133;-63
2023/10/29 00:59:00;;;;;;;2.90;1.70;;;11.90;99.90;;;;;;5067196;28;20067;-63
2023/10/29 01:01:26;;;;;;;2.20;1.38;;;11.90;99.90;;;;;;5067444;28;20056;-62
2023/10/29 01:03:52;;;;;;;3.33;2.03;;;11.90;99.90;;;;;;5067930;28;20143;-62
2023/10/29 01:06:18;;;;;;;1.85;1.25;;;11.90;99.90;;;;;;5068270;28;20480;-62
2023/10/29 01:08:44;;;;;;;3.13;2.00;;;11.90;99.90;;;;;;5067759;28;20579;-63
2023/10/29 01:11:10;;;;;;;2.97;2.20;;;11.90;99.90;;;;;;5052476;28;20497;-61
2023/10/29 01:13:36;;;;;;;2.45;1.58;;;11.90;99.90;;;;;;5033121;28;20040;-62
2023/10/29 01:16:04;;;;;;;2.65;1.83;;;11.90;99.90;;;;;;5046787;28;20065;-62
2023/10/29 01:18:32;;;;;;;1.73;1.23;;;11.90;99.90;;;;;;5067611;28;20443;-62
2023/10/29 01:20:58;;;;;;;2.72;1.45;;;11.90;99.90;;;;;;5059524;28;20102;-63
2023/10/29 01:23:25;;;;;;;2.70;1.05;;;11.90;99.90;;;;;;5066846;28;20094;-62
2023/10/29 01:25:51;;;;;;;1.85;1.10;;;11.90;99.90;;;;;;5066256;28;20117;-63
2023/10/29 01:28:17;;;;;;;2.30;1.67;;;11.90;99.90;;;;;;5056318;28;20048;-63
2023/10/29 01:30:43;;;;;;;2.40;1.40;;;11.90;99.90;;;;;;5069428;28;20043;-63
2023/10/29 01:33:09;;;;;;;2.50;1.52;;;11.90;99.90;;;;;;5072031;28;20052;-63
2023/10/29 01:35:34;;;;;;;3.33;1.52;;;11.90;99.90;;;;;;5063924;28;20135;-63
2023/10/29 01:38:01;;;;;;;2.03;1.50;;;11.90;99.90;;;;;;5072215;28;20044;-64
2023/10/29 01:40:27;;;;;;;2.15;1.25;;;11.90;99.90;;;;;;5064289;28;20086;-63
2023/10/29 01:42:53;;;;;;;2.85;1.50;;;11.90;99.90;;;;;;5071928;28;20032;-63
2023/10/29 01:45:18;;;;;;;2.03;1.27;;;12.00;99.90;;;;;;5070203;28;20047;-64
2023/10/29 01:47:44;;;;;;;2.53;1.70;;;12.00;99.90;;;;;;5071395;28;20282;-63
2023/10/29 01:50:10;;;;;;;5.80;2.10;;;12.00;99.90;;;;;;5070278;28;20135;-63
2023/10/29 01:52:39;;;;;;;2.35;1.60;;;12.00;99.90;;;;;;5064772;28;20117;-63
2023/10/29 01:55:06;;;;;;;2.85;1.67;;;12.00;99.90;;;;;;5067706;28;20507;-63
2023/10/29 01:57:36;;;;;;;2.05;1.63;;;12.00;99.90;;;;;;5071645;28;20036;-63
2023/10/29 02:00:05;;;;;;;4.63;1.65;;;12.00;99.90;;;;;;5067509;28;20040;-63
2023/10/29 02:02:31;;;;;;;3.58;1.40;;;12.00;99.90;;;;;;5069531;28;20238;-64
2023/10/29 02:04:57;;;;;;;3.13;2.08;;;12.00;99.90;;;;;;5064665;28;20511;-63
2023/10/29 02:07:23;;;;;;;5.75;2.03;;;12.00;99.90;;;;;;5062922;28;20032;-63
2023/10/29 02:09:49;;;;;;;2.35;1.80;;;12.00;99.90;;;;;;5066905;28;20446;-63
2023/10/29 02:12:15;;;;;;;3.00;1.83;;;12.10;99.90;;;;;;5071649;28;20044;-63
2023/10/29 02:14:41;;;;;;;1.80;1.42;;;12.10;99.90;;;;;;5061010;28;20071;-63
2023/10/29 02:17:06;;;;;;;2.47;1.42;;;12.10;99.90;;;;;;5063464;28;20036;-63
2023/10/29 02:19:32;;;;;;;2.10;1.48;;;12.10;99.90;;;;;;5069938;28;20043;-63
2023/10/29 02:21:58;;;;;;;2.67;1.63;;;12.10;99.90;;;;;;5070306;28;20474;-62
2023/10/29 02:24:24;;;;;;;2.05;1.40;;;12.10;99.90;;;;;;5071138;28;20472;-63
2023/10/29 02:26:49;;;;;;;2.28;1.35;;;12.10;99.90;;;;;;5071937;28;20112;-63
2023/10/29 02:29:16;;;;;;;2.83;1.60;;;12.10;99.90;;;;;;5069732;28;20029;-63
2023/10/29 02:31:42;;;;;;;3.15;1.40;;;12.20;99.90;;;;;;5068781;28;20492;-63
2023/10/29 02:34:08;;;;;;;2.83;1.23;;;12.20;99.90;;;;;;5068684;28;20051;-63
2023/10/29 02:36:33;;;;;;;3.03;1.55;;;12.10;99.90;;;;;;5068334;28;20047;-63
2023/10/29 02:38:59;;;;;;;2.83;1.92;;;12.10;99.90;;;;;;5070588;28;20123;-63
2023/10/29 02:41:25;;;;;;;2.33;1.25;;;12.10;99.90;;;;;;5071168;28;20496;-63
2023/10/29 02:43:51;;;;;;;2.92;1.33;;;12.20;99.90;;;;;;5068606;28;20286;-62
2023/10/29 02:46:17;;;;;;;4.00;1.38;;;12.20;99.90;;;;;;5069745;28;20060;-61
2023/10/29 02:48:42;;;;;;;2.00;1.35;;;12.20;99.90;;;;;;5065204;28;20036;-63
2023/10/29 02:51:12;;;;;;;1.88;1.20;;;12.20;99.90;;;;;;5063649;28;20107;-63
2023/10/29 02:53:38;;;;;;;4.18;1.42;;;12.20;99.90;;;;;;5061170;28;20059;-63
2023/10/29 02:56:04;;;;;;;4.82;1.58;;;12.20;99.90;;;;;;5070997;28;20131;-63
2023/10/29 02:58:30;;;;;;;2.72;1.25;;;12.20;99.90;;;;;;5067604;28;20119;-63
2023/10/29 03:01:06;;;;;;;2.47;1.52;;;12.20;99.90;;;;;;5070420;28;20040;-63
2023/10/29 03:03:33;;;;;;;1.38;1.00;;;12.20;99.90;;;;;;5060623;28;20451;-63
2023/10/29 03:06:02;;;;;;;1.75;1.05;;;12.30;99.90;;;;;;5066259;28;20048;-63
2023/10/29 03:08:27;;;;;;;4.45;1.10;;;12.20;99.90;;;;;;5049985;28;20492;-63
2023/10/29 03:10:53;;;;;;;1.45;0.95;;;12.20;99.90;;;;;;5070506;28;20128;-63
2023/10/29 03:13:19;;;;;;;1.05;0.77;;;12.30;99.90;;;;;;5051269;28;20913;-63
2023/10/29 03:15:45;;;;;;;2.28;1.38;;;12.30;99.90;;;;;;5048626;28;20040;-64
2023/10/29 03:18:13;;;;;;;1.50;0.93;;;12.30;99.90;;;;;;5073065;28;20059;-64
2023/10/29 03:20:39;;;;;;;3.15;1.20;;;12.30;99.90;;;;;;5066354;28;20033;-63
2023/10/29 03:23:05;;;;;;;2.50;1.15;;;12.30;99.90;;;;;;5039438;28;20581;-63
2023/10/29 03:25:31;;;;;;;2.17;1.17;;;12.30;99.90;;;;;;5070060;28;20040;-63
2023/10/29 03:27:57;;;;;;;2.65;1.08;;;12.30;99.90;;;;;;5048676;28;20060;-64
2023/10/29 03:30:22;;;;;;;2.45;1.20;;;12.30;99.90;;;;;;5050974;28;20052;-63
2023/10/29 03:32:48;;;;;;;1.63;0.90;;;12.30;99.90;;;;;;5069380;28;20036;-64
2023/10/29 03:35:14;;;;;;;2.15;1.15;;;12.30;99.90;;;;;;5067102;28;20384;-62
2023/10/29 03:37:40;;;;;;;3.38;1.20;;;12.30;99.90;;;;;;5069901;28;20054;-62
2023/10/29 03:40:07;;;;;;;1.77;1.13;;;12.30;99.90;;;;;;5064906;28;20036;-63
2023/10/29 03:42:33;;;;;;;0.80;0.80;;;12.30;99.90;;;;;;5050930;28;20049;-63
2023/10/29 03:44:59;;;;;;;2.00;1.10;;;12.30;99.90;;;;;;5068376;28;20106;-63
2023/10/29 03:47:25;;;;;;;1.95;1.10;;;12.40;99.90;;;;;;5069286;28;20032;-63
2023/10/29 03:49:51;;;;;;;1.50;0.90;;;12.30;99.90;;;;;;5067436;28;20042;-63
2023/10/29 03:52:19;;;;;;;2.53;1.60;;;12.40;99.90;;;;;;5076488;28;20365;-63
2023/10/29 03:54:45;;;;;;;2.45;1.17;;;12.40;99.90;;;;;;5042281;28;20040;-63
2023/10/29 03:57:11;;;;;;;2.80;1.08;;;12.40;99.90;;;;;;5051511;28;20048;-63
2023/10/29 03:59:37;;;;;;;2.10;1.00;;;12.40;99.90;;;;;;5068278;28;20032;-63
2023/10/29 04:02:03;;;;;;;1.75;0.88;;;12.40;99.90;;;;;;5069161;28;20051;-63
2023/10/29 04:04:29;;;;;;;3.45;1.25;;;12.40;99.90;;;;;;5063464;28;20044;-62
2023/10/29 04:06:55;;;;;;;2.00;1.23;;;12.40;99.90;;;;;;5044442;28;20124;-63
2023/10/29 04:09:21;;;;;;;2.83;1.67;;;12.40;99.90;;;;;;5068727;28;20325;-63
2023/10/29 04:11:47;;;;;;;1.73;1.00;;;12.40;99.90;;;;;;5067794;28;20032;-63
2023/10/29 04:14:12;;;;;;;2.08;0.93;;;12.40;99.90;;;;;;5064176;28;20695;-63
2023/10/29 04:16:38;;;;;;;2.10;1.02;;;12.40;99.90;;;;;;5059117;28;20459;-63
2023/10/29 04:19:04;;;;;;;3.80;1.13;;;12.40;99.90;;;;;;5067904;28;20466;-63
2023/10/29 04:21:29;;;;;;;3.75;1.65;;;12.40;99.90;;;;;;5069415;28;20120;-63
2023/10/29 04:23:55;;;;;;;3.53;1.25;;;12.40;99.90;;;;;;5050992;28;20052;-63
2023/10/29 04:26:21;;;;;;;1.63;0.90;;;12.40;99.90;;;;;;5049142;28;20072;-62
2023/10/29 04:28:47;;;;;;;2.05;1.08;;;12.50;99.90;;;;;;5060138;28;20040;-62
2023/10/29 04:31:12;;;;;;;2.03;1.48;;;12.40;99.90;;;;;;5061118;28;20055;-62
2023/10/29 04:33:38;;;;;;;2.05;1.10;;;12.40;99.90;;;;;;5064966;28;20033;-62
2023/10/29 04:36:05;;;;;;;3.45;1.08;;;12.50;99.90;;;;;;5056972;28;20037;-62
2023/10/29 04:38:31;;;;;;;1.52;0.70;;;12.40;99.90;;;;;;5062910;28;20036;-63
2023/10/29 04:40:57;;;;;;;2.25;0.77;;;12.40;99.90;;;;;;5066933;28;20514;-62
2023/10/29 04:43:23;;;;;;;3.88;0.80;;;12.40;99.90;;;;;;5062520;28;20307;-63
2023/10/29 04:45:48;;;;;;;0.73;0.70;;;12.40;99.90;;;;;;5066084;28;20137;-62
2023/10/29 04:48:16;;;;;;;0.98;0.60;;;12.40;99.90;;;;;;5054911;28;20036;-63
2023/10/29 04:50:41;;;;;;;1.10;0.57;;;12.40;99.90;;;;;;5067119;28;20059;-63
2023/10/29 04:53:07;;;;;;;0.88;0.50;;;12.40;99.90;;;;;;5067664;28;20040;-63
2023/10/29 04:55:33;;;;;;;5.07;0.70;;;12.40;99.90;;;;;;5032337;28;20058;-63
2023/10/29 04:57:59;;;;;;;0.93;0.60;;;12.40;99.90;;;;;;5067595;28;20456;-63
2023/10/29 05:00:24;;;;;;;2.65;0.98;;;12.40;99.90;;;;;;5067353;28;20060;-63
2023/10/29 05:02:50;;;;;;;1.40;0.77;;;12.40;99.90;;;;;;5068097;28;20482;-63
2023/10/29 05:05:17;;;;;;;1.20;0.52;;;12.40;99.90;;;;;;5067621;28;20048;-62
2023/10/29 05:07:44;;;;;;;2.03;0.60;;;12.40;99.90;;;;;;5068250;28;20452;-62
2023/10/29 05:10:12;;;;;;;1.45;0.57;;;12.30;99.90;;;;;;5067980;28;20082;-63
2023/10/29 05:12:37;;;;;;;1.40;0.75;;;12.30;99.90;;;;;;5069144;28;20083;-62
2023/10/29 05:15:03;;;;;;;1.95;0.70;;;12.30;99.90;;;;;;5056574;28;20080;-63
2023/10/29 05:17:29;;;;;;;1.08;0.60;;;12.30;99.90;;;;;;5067307;28;20040;-64
2023/10/29 05:19:56;;;;;;;1.33;0.80;;;12.40;99.90;;;;;;5048101;28;20049;-67
2023/10/29 05:22:22;;;;;;;1.85;0.50;;;12.30;99.90;;;;;;5064809;28;20045;-63
2023/10/29 05:24:47;;;;;;;3.80;0.80;;;12.30;99.90;;;;;;5066972;28;20146;-62
2023/10/29 05:27:13;;;;;;;1.20;0.75;;;12.40;99.90;;;;;;5066783;28;20040;-61
2023/10/29 05:29:39;;;;;;;1.63;0.90;;;12.30;99.90;;;;;;5068062;28;20071;-62
2023/10/29 05:32:05;;;;;;;1.17;0.90;;;12.30;99.90;;;;;;5060639;28;20041;-62
2023/10/29 05:34:31;;;;;;;3.13;0.70;;;12.30;99.90;;;;;;5050363;28;20047;-61
2023/10/29 05:36:57;;;;;;;3.88;1.35;;;12.30;99.90;;;;;;5045312;28;20094;-64
2023/10/29 05:39:22;;;;;;;2.80;1.27;;;12.30;99.90;;;;;;5050157;28;20102;-62
2023/10/29 05:41:48;;;;;;;1.63;0.82;;;12.30;99.90;;;;;;5067776;28;20045;-63
2023/10/29 05:44:14;;;;;;;4.13;1.73;;;12.30;99.90;;;;;;5066748;28;20036;-63
2023/10/29 05:46:40;;;;;;;2.00;1.20;;;12.30;99.90;;;;;;5067497;28;20488;-64
2023/10/29 05:49:05;;;;;;;2.13;0.93;;;12.30;99.90;;;;;;5063967;28;20033;-64
2023/10/29 05:51:31;;;;;;;2.55;1.38;;;12.30;99.90;;;;;;5061666;28;20041;-63
2023/10/29 05:53:57;;;;;;;5.10;1.77;;;12.30;99.90;;;;;;5049932;28;20144;-62
2023/10/29 05:56:23;;;;;;;1.67;0.93;;;12.30;99.90;;;;;;5049896;28;20116;-63
2023/10/29 05:58:48;;;;;;;2.05;0.85;;;12.30;99.90;;;;;;5047303;28;20107;-63
2023/10/29 06:01:14;;;;;;;3.33;1.25;;;12.30;99.90;;;;;;5069756;28;20047;-62
2023/10/29 06:03:40;;;;;;;4.43;1.40;;;12.30;99.90;;;;;;5068280;28;20388;-63
2023/10/29 06:06:06;;;;;;;1.13;0.68;;;12.30;99.90;;;;;;5067403;28;20041;-63
2023/10/29 06:08:32;;;;;;;1.40;0.90;;;12.30;99.90;;;;;;5067676;28;20032;-62
2023/10/29 06:10:59;;;;;;;1.63;1.00;;;12.30;99.90;;;;;;5068090;28;20052;-63
2023/10/29 06:13:25;;;;;;;1.83;0.63;;;12.40;99.90;;;;;;5069113;28;20076;-62
2023/10/29 06:15:51;;;;;;;3.10;0.95;;;12.30;99.90;;;;;;5070877;28;20091;-62
2023/10/29 06:18:17;;;;;;;2.05;1.20;;;12.40;99.90;;;;;;5055466;28;20135;-63
2023/10/29 06:20:42;;;;;;;1.77;0.85;;;12.30;99.90;;;;;;5066144;28;20036;-65
2023/10/29 06:23:09;;;;;;;2.50;0.80;;;12.30;99.90;;;;;;5069556;28;20029;-62
2023/10/29 06:25:35;;;;;;;1.88;0.98;;;12.30;99.90;;;;;;5071104;28;20463;-62
2023/10/29 06:28:01;;;;;;;0.60;0.60;;;12.30;99.90;;;;;;5069419;28;20058;-62
2023/10/29 06:30:27;;;;;;;1.23;0.70;;;12.30;99.90;;;;;;5054436;28;20045;-64
2023/10/29 06:32:52;;;;;;;2.53;0.98;;;12.30;99.90;;;;;;5052182;28;20067;-62
2023/10/29 06:35:18;;;;;;;2.35;0.95;;;12.30;99.90;;;;;;5048575;28;20401;-63
2023/10/29 06:37:44;;;;;;;1.83;0.88;;;12.30;99.90;;;;;;5054863;28;20048;-63
2023/10/29 06:40:10;;;;;;;3.10;1.25;;;12.30;99.90;;;;;;5033063;28;20048;-65
2023/10/29 06:42:37;;;;;;;1.45;0.60;;;12.30;99.90;;;;;;5070420;28;20224;-63
2023/10/29 06:45:05;;;;;;;1.92;0.70;;;12.30;99.90;;;;;;5069479;28;20093;-63
2023/10/29 06:47:33;;;;;;;3.45;0.73;;;12.30;99.90;;;;;;5048103;28;20051;-62
2023/10/29 06:49:59;;;;;;;1.45;1.00;;;12.30;99.90;;;;;;5067684;28;20036;-62
2023/10/29 06:52:25;;;;;;;3.95;0.95;;;12.30;99.90;;;;;;5001196;28;20040;-62
2023/10/29 06:54:50;;;;;;;6.07;1.33;;;12.20;99.90;;;;;;5052976;28;20503;-62
2023/10/29 06:57:16;;;;;;;5.88;1.15;;;12.30;99.90;;;;;;5071010;28;20505;-63
2023/10/29 06:59:42;;;;;;;1.20;0.70;;;12.30;99.90;;;;;;5070309;28;20120;-62
2023/10/29 07:02:08;;;;;;;4.35;1.33;;;12.30;99.90;;;;;;5066914;28;20064;-63
2023/10/29 07:04:34;;;;;;;2.50;1.30;;;12.30;99.90;;;;;;5069188;28;20095;-63
2023/10/29 07:07:00;;;;;;;2.03;1.00;;;12.30;99.90;;;;;;5068409;28;20102;-63
2023/10/29 07:09:26;;;;;;;3.50;1.17;;;12.30;99.90;;;;;;5070489;28;20039;-63
2023/10/29 07:11:52;;;;;;;2.83;1.40;;;12.20;99.90;;;;;;5068774;28;20295;-62
2023/10/29 07:14:18;;;;;;;4.22;1.20;;;12.20;99.90;;;;;;5067623;28;20090;-63
2023/10/29 07:16:44;;;;;;;5.28;1.52;;;12.30;99.90;;;;;;5064609;28;20090;-62
2023/10/29 07:19:13;;;;;;;2.95;0.98;;;12.30;99.90;;;;;;5064847;28;20416;-62
2023/10/29 07:21:40;;;;;;;3.00;0.95;;;12.30;99.90;;;;;;5047813;28;20047;-63
2023/10/29 07:24:06;;;;;;;4.25;1.33;;;12.30;99.90;;;;;;5067949;28;20040;-64
2023/10/29 07:26:33;;;;;;;3.20;1.17;;;12.30;99.90;;;;;;5074842;28;20075;-64
2023/10/29 07:29:01;;;;;;;2.83;1.15;;;12.30;99.90;;;;;;5066871;28;20048;-63
2023/10/29 07:31:27;;;;;;;8.35;1.40;;;12.30;99.90;;;;;;5065886;28;20036;-64
2023/10/29 07:33:53;;;;;;;5.47;1.30;;;12.30;99.90;;;;;;5068046;28;20071;-63
2023/10/29 07:36:20;;;;;;;2.45;1.67;;;12.30;99.90;;;;;;5068959;28;20127;-63
2023/10/29 07:38:46;;;;;;;3.75;1.10;;;12.40;99.90;;;;;;5069290;28;20040;-63
2023/10/29 07:41:19;;;;;;;2.15;1.15;;;12.30;99.90;;;;;;5068631;28;20047;-63
2023/10/29 07:43:45;;;;;;;2.97;1.50;;;12.40;99.90;;;;;;5062975;28;20095;-63
2023/10/29 07:46:11;;;;;;;2.97;1.17;;;12.40;99.90;;;;;;5051088;28;20219;-62
2023/10/29 07:48:36;;;;;;;2.45;1.83;;;12.50;99.90;;;;;;5060231;28;20131;-63
2023/10/29 07:51:02;;;;;;;3.53;1.05;;;12.40;99.90;;;;;;5049736;28;20128;-62
2023/10/29 07:53:30;;;;;;;3.90;1.65;;;12.50;99.90;;;;;;5069118;28;20044;-62
2023/10/29 07:56:09;;;;;;;4.15;1.13;;;12.50;99.90;;;;;;5069973;28;20441;-62
2023/10/29 07:58:36;;;;;;;4.20;1.08;;;12.50;99.90;;;;;;5067279;28;20047;-64
2023/10/29 08:01:09;;;;;;;2.58;1.10;;;12.50;99.90;;;;;;5068702;28;20071;-63
2023/10/29 08:03:35;;;;;;;5.45;1.30;;;12.60;99.90;;;;;;5067780;28;20047;-62
2023/10/29 08:06:00;;;;;;;2.75;1.65;;;12.60;99.90;;;;;;5063205;28;20036;-63
2023/10/29 08:08:26;;;;;;;5.20;1.80;;;12.60;99.90;;;;;;5064548;28;20085;-62
2023/10/29 08:10:52;;;;;;;4.53;1.15;;;12.60;99.90;;;;;;5069565;28;20063;-63
2023/10/29 08:13:18;;;;;;;3.63;1.20;;;12.60;99.90;;;;;;5043629;28;20048;-62
2023/10/29 08:15:44;;;;;;;9.07;2.08;;;12.60;99.90;;;;;;5065150;28;20044;-63
2023/10/29 08:18:10;;;;;;;4.07;1.70;;;12.60;99.90;;;;;;5062451;28;20044;-62
2023/10/29 08:20:36;;;;;;;8.23;1.85;;;12.60;99.90;;;;;;5065132;28;20036;-62
2023/10/29 08:23:01;;;;;;;3.25;1.88;;;12.60;99.90;;;;;;5064978;28;20261;-62
2023/10/29 08:25:27;;;;;;;4.97;1.55;;;12.60;99.90;;;;;;5042903;28;20037;-63
2023/10/29 08:27:53;;;;;;;2.95;1.20;;;12.60;99.90;;;;;;5067023;28;20127;-63
2023/10/29 08:30:19;;;;;;;5.53;2.00;;;12.60;99.90;;;;;;5068184;28;20368;-62
2023/10/29 08:32:45;;;;;;;2.70;1.23;;;12.70;99.90;;;;;;5044309;28;20044;-62
2023/10/29 08:35:10;;;;;;;6.68;2.00;;;12.70;99.90;;;;;;5061573;28;20036;-63
2023/10/29 08:37:36;;;;;;;4.70;1.75;;;12.80;99.90;;;;;;5062156;28;20033;-63
2023/10/29 08:40:02;;;;;;;3.75;1.58;;;12.80;99.90;;;;;;5064015;28;20052;-62
2023/10/29 08:42:31;;;;;;;4.00;1.30;;;12.90;99.90;;;;;;5061495;28;20044;-63
2023/10/29 08:44:57;;;;;;;4.05;1.30;;;12.90;99.90;;;;;;5063120;28;20083;-63
2023/10/29 08:47:24;;;;;;;5.75;1.20;;;13.00;99.90;;;;;;5064734;28;20136;-63
2023/10/29 08:49:50;;;;;;;4.82;1.73;;;13.10;99.90;;;;;;5073851;28;20025;-62
2023/10/29 08:52:17;;;;;;;4.40;1.70;;;13.10;99.90;;;;;;5061909;28;20041;-62
2023/10/29 08:54:44;;;;;;;3.28;1.80;;;13.20;99.90;;;;;;5064821;28;20080;-62
2023/10/29 08:57:10;;;;;;;6.75;2.42;;;13.20;99.90;;;;;;5062169;28;20118;-62
2023/10/29 08:59:36;;;;;;;3.55;1.45;;;13.30;99.90;;;;;;5065005;28;20123;-61
2023/10/29 09:02:02;;;;;;;5.55;1.73;;;;;;;;;;5064018;28;20173;-62
2023/10/29 09:04:28;;;;;;;3.20;1.50;;;13.30;99.90;;;;;;5044549;28;20044;-63
2023/10/29 09:06:54;;;;;;;3.38;1.60;;;13.30;99.90;;;;;;5063291;28;20048;-63
2023/10/29 09:09:20;;;;;;;7.97;1.42;;;13.30;99.90;;;;;;5056600;28;20400;-64
2023/10/29 09:11:46;;;;;;;7.70;1.50;;;13.40;99.90;;;;;;5046065;28;20072;-63
2023/10/29 09:14:13;;;;;;;6.88;1.50;;;13.40;99.90;;;;;;5062916;28;20116;-63
2023/10/29 09:16:41;;;;;;;3.22;1.73;;;13.30;99.90;;;;;;5066067;28;20075;-63
2023/10/29 09:19:07;;;;;;;7.40;2.03;;;13.40;99.90;;;;;;5064487;28;20049;-63
2023/10/29 09:21:33;;;;;;;5.75;1.52;;;13.30;99.90;;;;;;5065491;28;20524;-63
2023/10/29 09:23:59;;;;;;;5.18;1.55;;;13.30;99.90;;;;;;5047105;28;20048;-63
2023/10/29 09:26:25;;;;;;;3.25;1.25;;;13.30;99.90;;;;;;5065570;28;20043;-64
2023/10/29 09:28:50;;;;;;;5.07;1.92;;;13.30;99.90;;;;;;5042219;28;20036;-64
2023/10/29 09:31:20;;;;;;;4.72;1.95;;;13.30;99.90;;;;;;5063845;28;20035;-63
2023/10/29 09:33:47;;;;;;;5.15;1.38;;;13.20;99.90;;;;;;5044098;28;20044;-63
2023/10/29 09:36:13;;;;;;;4.78;1.30;;;13.20;99.90;;;;;;5065505;28;20051;-64
2023/10/29 09:38:40;;;;;;;4.88;1.25;;;13.20;99.90;;;;;;5046334;28;20044;-63
2023/10/29 09:41:07;;;;;;;4.90;2.22;;;13.30;99.90;;;;;;5054648;28;20170;-63
2023/10/29 09:43:40;;;;;;;3.58;1.20;;;13.30;99.90;;;;;;5029476;28;20051;-63
2023/10/29 09:46:09;;;;;;;3.10;1.25;;;13.30;99.90;;;;;;5061350;28;20500;-63
2023/10/29 09:48:35;;;;;;;5.15;1.58;;;13.40;99.90;;;;;;5045696;28;20083;-63
2023/10/29 09:51:03;;;;;;;5.38;1.40;;;13.50;99.90;;;;;;5052034;28;20040;-62
2023/10/29 09:53:31;;;;;;;5.85;2.08;;;13.60;99.90;;;;;;5068454;28;20052;-61
2023/10/29 09:55:58;;;;;;;3.80;1.40;;;13.70;99.90;;;;;;5062958;28;20367;-63
2023/10/29 09:58:26;;;;;;;3.85;1.60;;;13.90;99.90;;;;;;5056514;28;20045;-63
2023/10/29 10:00:52;;;;;;;2.92;1.30;;;14.00;99.90;;;;;;5057268;28;20049;-63
2023/10/29 10:03:18;;;;;;;5.07;1.58;;;;;;;;;;5036749;28;20047;-63
2023/10/29 10:05:46;;;;;;;4.90;1.70;;;;;;;;;;5064321;28;20114;-63
2023/10/29 10:08:12;;;;;;;3.35;1.67;;;14.10;99.90;;;;;;5068810;28;20109;-63
2023/10/29 10:10:40;;;;;;;4.80;1.70;;;;;;;;;;5074663;28;20032;-62
2023/10/29 10:13:06;;;;;;;5.85;1.52;;;;;;;;;;5059577;28;20333;-62
2023/10/29 10:15:32;;;;;;;6.05;1.25;;;14.90;99.90;;;;;;5061353;28;20051;-63
2023/10/29 10:18:00;;;;;;;3.55;1.40;;;15.00;99.90;;;;;;5060164;28;20041;-64
2023/10/29 10:20:27;;;;;;;4.47;1.50;;;15.10;99.90;;;;;;5063969;28;20465;-62
2023/10/29 10:22:56;;;;;;;5.10;1.50;;;;;;;;;;5060776;28;20048;-62
2023/10/29 10:25:23;;;;;;;2.33;1.23;;;15.20;99.90;;;;;;5068176;28;20377;-62
2023/10/29 10:27:50;;;;;;;3.45;1.38;;;;;;;;;;5063614;28;20127;-63
2023/10/29 10:30:37;;;;;;;3.90;1.67;;;15.30;99.90;;;;;;5067265;28;20037;-62
2023/10/29 10:33:12;;;;;;;4.75;1.38;;;;;;;;;;5026156;28;20648;-62
2023/10/29 10:35:45;;;;;;;5.35;1.88;;;;;;;;;;5064631;28;20605;-62
2023/10/29 10:38:11;;;;;;;;;;;;;;;;;;5049084;28;20044;-62
2023/10/29 10:40:38;;;;;;;3.00;1.77;;;;;;;;;;5068168;28;19916;-62
2023/10/29 10:43:04;;;;;;;7.97;1.70;;;;;;;;;;5050502;28;20491;-62
2023/10/29 10:45:32;;;;;;;2.33;1.42;;;;;;;;;;5065188;28;20518;-62
2023/10/29 10:48:00;;;;;;;5.15;1.40;;;;;;;;;;5068782;28;20459;-62
2023/10/29 10:50:27;;;;;;;3.50;1.65;;;;;;;;;;5049404;28;20097;-63
2023/10/29 10:52:53;;;;;;;3.05;1.65;;;;;;;;;;5063862;28;20230;-63
2023/10/29 10:55:20;;;;;;;6.72;1.65;;;;;;;;;;5064758;28;20044;-63
2023/10/29 10:57:49;;;;;;;5.32;1.70;;;;;;;;;;5065092;28;20052;-63
2023/10/29 11:00:19;;;;;;;4.82;1.80;;;;;;;;;;5047179;28;20142;-63
2023/10/29 11:02:47;;;;;;;4.13;1.35;;;;;;;;;;5044448;28;20511;-62
2023/10/29 11:05:18;;;;;;;5.13;2.58;;;;;;;;;;5048736;28;20078;-62
2023/10/29 11:07:44;;;;;;;5.30;2.20;;;;;;;;;;5048291;28;20341;-62
2023/10/29 11:10:15;;;;;;;3.70;1.60;;;;;;;;;;5063542;28;20044;-62
2023/10/29 11:12:41;;;;;;;2.10;1.48;;;;;;;;;;5065259;28;20542;-62
2023/10/29 11:15:17;;;;;;;4.10;1.27;;;;;;;;;;5064942;28;20127;-62
2023/10/29 11:18:00;;;;;;;6.68;1.40;;;;;;;;;;5057447;28;20055;-62
2023/10/29 11:20:49;;;;;;;4.07;1.83;;;;;;;;;;5066051;28;20040;-63
2023/10/29 11:23:28;;;;;;;4.00;1.30;;;;;;;;;;5063533;28;20474;-59
2023/10/29 11:26:28;;;;;;;7.72;1.83;;;;;;;;;;5066705;28;20033;-62
2023/10/29 11:28:54;;;;;;;4.95;1.92;;;;;;;;;;5018736;28;20128;-62
2023/10/29 11:31:22;;;;;;;4.28;1.45;;;;;;;;;;5067434;28;20040;-62
2023/10/29 11:33:48;;;;;;;4.97;2.38;;;;;;;;;;5067054;28;20059;-62
2023/10/29 11:36:31;;;;;;;4.30;2.35;;;;;;;;;;5065254;28;20044;-62
2023/10/29 11:39:15;;;;;;;2.42;1.17;;;;;;;;;;5060604;28;20480;-62
2023/10/29 11:41:42;;;;;;;3.03;1.63;;;;;;;;;;5066480;28;20040;-63
2023/10/29 11:44:24;;;;;;;3.35;1.48;;;;;;;;;;5064669;28;20080;-63
2023/10/29 11:46:59;;;;;;;3.40;1.70;;;15.30;99.90;;;;;;5066772;28;20094;-62
2023/10/29 11:49:26;;;;;;;3.83;1.40;;;15.50;99.90;;;;;;5063871;28;20041;-62
2023/10/29 11:51:57;;;;;;;3.20;1.30;;;15.50;99.90;;;;;;5048210;28;20439;-62
2023/10/29 11:54:23;;;;;;;7.32;2.10;;;15.60;99.90;;;;;;5061966;28;20067;-63
2023/10/29 11:56:52;;;;;;;5.75;1.98;;;15.50;99.90;;;;;;5047089;28;20837;-63
2023/10/29 11:59:18;;;;;;;6.05;1.98;;;15.50;99.90;;;;;;5063405;28;20563;-62
2023/10/29 12:01:44;;;;;;;5.60;2.13;;;15.50;99.90;;;;;;5065571;28;20647;-62
2023/10/29 12:04:14;;;;;;;5.10;1.98;;;15.50;99.90;;;;;;5066475;28;20556;-62
2023/10/29 12:06:42;;;;;;;7.03;1.92;;;15.50;99.90;;;;;;5069159;28;20029;-62
2023/10/29 12:09:25;;;;;;;5.63;2.20;;;15.50;99.90;;;;;;5047171;28;20045;-62
2023/10/29 12:11:53;;;;;;;5.88;1.92;;;15.40;99.90;;;;;;5065230;28;20051;-62
2023/10/29 12:14:46;;;;;;;6.13;2.08;;;15.40;99.90;;;;;;5062020;28;20133;-61
2023/10/29 12:17:14;;;;;;;5.38;1.98;;;15.40;99.90;;;;;;5063292;28;20052;-62
2023/10/29 12:19:47;;;;;;;5.53;1.77;;;15.30;99.90;;;;;;5064546;28;20091;-62
2023/10/29 12:22:30;;;;;;;8.98;3.03;;;15.30;99.90;;;;;;5057636;28;20130;-63
2023/10/29 12:25:00;;;;;;;6.70;1.95;;;15.20;99.90;;;;;;5061978;28;20052;-63
2023/10/29 12:27:30;;;;;;;3.58;2.20;;;15.20;99.90;;;;;;5061958;28;20036;-63
2023/10/29 12:29:56;;;;;;;4.32;1.60;;;15.20;99.90;;;;;;5043048;28;20527;-63
2023/10/29 12:32:24;;;;;;;9.38;3.10;;;15.10;99.90;;;;;;5046661;28;20504;-63
2023/10/29 12:34:59;;;;;;;6.15;3.10;;;15.10;99.90;;;;;;5063885;28;20043;-63
2023/10/29 12:37:26;;;;;;;5.43;2.20;;;15.10;99.90;;;;;;5063978;28;20054;-63
2023/10/29 12:39:56;;;;;;;9.10;2.30;;;15.10;99.90;;;;;;5063980;28;20032;-63
2023/10/29 12:42:24;;;;;;;9.02;3.15;;;15.10;99.90;;;;;;5065730;28;20853;-62
2023/10/29 12:44:56;;;;;;;5.00;2.13;;;15.00;99.90;;;;;;5063231;28;20044;-63
2023/10/29 12:47:22;;;;;;;9.48;2.88;;;15.00;99.90;;;;;;5061269;28;20068;-63
2023/10/29 12:49:59;;;;;;;6.50;2.35;;;15.00;99.90;;;;;;5063148;28;20036;-63
2023/10/29 12:52:26;;;;;;;5.43;2.05;;;15.10;99.90;;;;;;5061727;28;20037;-62
2023/10/29 12:54:52;;;;;;;8.00;2.72;;;15.10;99.90;;;;;;5039650;28;20182;-63
2023/10/29 12:57:18;;;;;;;3.60;1.63;;;15.10;99.90;;;;;;5063166;28;20551;-63